Погода Ламбарина 2 недели

Минас-Жерайс, Бразилия

15 - 28 июня
  • 15июня
    Сегодня
    +9°
    +25°
    Ясно и безоблачно
    ВремяПогодаТемператураВлажностьДавлениеВетер, м/сВероятность осадков
    00:00Ясно и безоблачно+13°C78 %689 мм1.6 м/с5 %
    03:00Ясно и безоблачно+12°C86 %689 мм1.4 м/с5 %
    06:00Ясно и безоблачно+10°C89 %689 мм1.3 м/с5 %
    09:00Ясно и безоблачно+14°C74 %691 мм0.8 м/с5 %
    12:00Ясно и безоблачно+21°C56 %691 мм1.1 м/с5 %
    15:00Ясно и безоблачно+24°C51 %690 мм1.2 м/с5 %
    18:00Ясно и безоблачно+20°C64 %689 мм1.0 м/с5 %
    21:00Ясно и безоблачно+18°C71 %689 мм0.6 м/с5 %
  • 16июня
    Воскресенье
    +9°
    +25°
    Ясно и безоблачно
    ВремяПогодаТемператураВлажностьДавлениеВетер, м/сВероятность осадков
    00:00Ясно и безоблачно+12°C85 %688 мм1.4 м/с5 %
    03:00Ясно и безоблачно+12°C84 %688 мм1.4 м/с5 %
    06:00Ясно и безоблачно+10°C87 %687 мм1.5 м/с5 %
    09:00Ясно и безоблачно+15°C70 %689 мм1.1 м/с5 %
    12:00Ясно и безоблачно+22°C49 %690 мм1.5 м/с5 %
    15:00Ясно и безоблачно+24°C44 %689 мм1.4 м/с5 %
    18:00Ясно и безоблачно+19°C56 %688 мм0.7 м/с5 %
    21:00Ясно и безоблачно+16°C74 %687 мм1.0 м/с5 %
  • 17июня
    Понедельник
    +9°
    +25°
    Ясно и безоблачно
    ВремяПогодаТемператураВлажностьДавлениеВетер, м/сВероятность осадков
    00:00Ясно и безоблачно+12°C79 %687 мм1.0 м/с5 %
    03:00Ясно и безоблачно+12°C80 %686 мм1.0 м/с5 %
    06:00Ясно и безоблачно+10°C84 %685 мм1.5 м/с5 %
    09:00Ясно и безоблачно+14°C69 %688 мм1.0 м/с5 %
    12:00Ясно и безоблачно+22°C56 %688 мм1.8 м/с5 %
    15:00Ясно и безоблачно+24°C51 %687 мм1.7 м/с5 %
    18:00Ясно и безоблачно+20°C62 %686 мм1.0 м/с5 %
    21:00Ясно и безоблачно+17°C69 %686 мм0.5 м/с5 %
  • 18июня
    Вторник
    +10°
    +25°
    Ясно и безоблачно
    ВремяПогодаТемператураВлажностьДавлениеВетер, м/сВероятность осадков
    00:00Ясно и безоблачно+13°C77 %686 мм0.9 м/с5 %
    03:00Ясно и безоблачно+11°C85 %685 мм1.4 м/с5 %
    06:00Ясно и безоблачно+10°C86 %685 мм1.3 м/с5 %
    09:00Ясно и безоблачно+14°C73 %687 мм1.1 м/с5 %
    12:00Ясно и безоблачно+22°C53 %688 мм2.8 м/с5 %
    15:00Ясно и безоблачно+24°C50 %687 мм2.0 м/с5 %
    18:00Практически безоблачно+19°C63 %686 мм1.3 м/с5 %
    21:00Ясно и безоблачно+16°C73 %687 мм1.0 м/с5 %
  • 19июня
    Среда
    +10°
    +26°
    Ясно и безоблачно
    ВремяПогодаТемператураВлажностьДавлениеВетер, м/сВероятность осадков
    00:00Ясно и безоблачно+12°C81 %686 мм1.2 м/с5 %
    03:00Ясно и безоблачно+12°C81 %685 мм1.6 м/с5 %
    06:00Ясно и безоблачно+11°C83 %685 мм1.6 м/с5 %
    09:00Ясно и безоблачно+15°C68 %688 мм1.1 м/с5 %
    12:00Ясно и безоблачно+23°C49 %689 мм2.4 м/с5 %
    15:00Ясно и безоблачно+25°C47 %688 мм1.9 м/с5 %
    18:00Ясно и безоблачно+20°C60 %687 мм0.8 м/с5 %
    21:00Ясно и безоблачно+16°C74 %687 мм1.3 м/с5 %
Мы используем cookies
Соглашаюсь